createdAt,value
2023-02-16T00:01:45.158Z,7.58
2023-02-16T00:04:21.674Z,7.56
2023-02-16T00:06:49.694Z,7.54
2023-02-16T00:09:17.436Z,7.53
2023-02-16T00:12:04.372Z,7.50
2023-02-16T00:14:34.049Z,7.47
2023-02-16T00:17:01.383Z,7.45
2023-02-16T00:19:35.734Z,7.44
2023-02-16T00:22:03.585Z,7.45
2023-02-16T00:24:31.685Z,7.51
2023-02-16T00:26:59.875Z,7.57
2023-02-16T00:29:33.424Z,7.61
2023-02-16T00:32:02.584Z,7.61
2023-02-16T00:34:42.625Z,7.61
2023-02-16T00:37:12.478Z,7.59
2023-02-16T00:39:41.535Z,7.58
2023-02-16T00:42:20.112Z,7.58
2023-02-16T00:44:55.869Z,7.60
2023-02-16T00:47:37.791Z,7.64
2023-02-16T00:50:27.142Z,7.70
2023-02-16T00:52:57.040Z,7.76
2023-02-16T00:55:27.873Z,7.79
2023-02-16T00:58:00.682Z,7.81
2023-02-16T01:00:35.494Z,7.81
2023-02-16T01:03:06.442Z,7.81
2023-02-16T01:05:33.689Z,7.81
2023-02-16T01:08:19.751Z,7.80
2023-02-16T01:11:07.512Z,7.79
2023-02-16T01:13:46.234Z,7.74
2023-02-16T01:16:14.747Z,7.69
2023-02-16T01:18:41.415Z,7.63
2023-02-16T01:21:08.053Z,7.59
2023-02-16T01:23:34.840Z,7.54
2023-02-16T01:26:01.764Z,7.49
2023-02-16T01:28:28.592Z,7.45
2023-02-16T01:30:55.436Z,7.41
2023-02-16T01:33:22.602Z,7.39
2023-02-16T01:35:50.918Z,7.37
2023-02-16T01:38:20.980Z,7.37
2023-02-16T01:41:22.747Z,7.37
2023-02-16T01:44:05.834Z,7.39
2023-02-16T01:46:42.421Z,7.39
2023-02-16T01:49:13.806Z,7.37
2023-02-16T01:51:55.679Z,7.36
2023-02-16T01:54:31.834Z,7.34
2023-02-16T01:57:10.056Z,7.32
2023-02-16T01:59:49.055Z,7.28
2023-02-16T02:02:20.516Z,7.22
2023-02-16T02:05:37.577Z,7.19
2023-02-16T02:08:51.682Z,7.16
2023-02-16T02:11:47.208Z,7.13
2023-02-16T02:14:19.920Z,7.11
2023-02-16T02:16:59.456Z,7.10
2023-02-16T02:19:29.060Z,7.10
2023-02-16T02:22:52.088Z,7.08
2023-02-16T02:26:04.546Z,7.08
2023-02-16T02:28:34.286Z,7.10
2023-02-16T02:31:12.136Z,7.08
2023-02-16T02:33:47.993Z,7.01
2023-02-16T02:36:37.931Z,6.93
2023-02-16T02:39:23.757Z,6.84
2023-02-16T02:42:06.071Z,6.76
2023-02-16T02:44:58.119Z,6.69
2023-02-16T02:47:44.324Z,6.64
2023-02-16T02:51:04.516Z,6.60
2023-02-16T02:53:35.422Z,6.56
2023-02-16T02:56:24.742Z,6.53
2023-02-16T02:59:16.843Z,6.51
2023-02-16T03:01:50.379Z,6.48
2023-02-16T03:04:27.835Z,6.45
2023-02-16T03:06:57.165Z,6.42
2023-02-16T03:09:24.704Z,6.39
2023-02-16T03:12:13.536Z,6.35
2023-02-16T03:14:54.767Z,6.30
2023-02-16T03:17:45.500Z,6.26
2023-02-16T03:20:33.747Z,6.21
2023-02-16T03:23:22.327Z,6.17
2023-02-16T03:26:10.712Z,6.12
2023-02-16T03:28:59.395Z,6.09
2023-02-16T03:31:32.755Z,6.06
2023-02-16T03:33:59.726Z,6.03
2023-02-16T03:36:29.780Z,6.00
2023-02-16T03:38:57.428Z,5.95
2023-02-16T03:41:26.430Z,5.92
2023-02-16T03:43:53.108Z,5.89
2023-02-16T03:46:19.818Z,5.84
2023-02-16T03:48:46.612Z,5.80
2023-02-16T03:51:13.142Z,5.78
2023-02-16T03:53:41.047Z,5.78
2023-02-16T03:56:07.758Z,5.76
2023-02-16T03:58:34.547Z,5.75
2023-02-16T04:01:01.322Z,5.73
2023-02-16T04:03:28.169Z,5.72
2023-02-16T04:05:56.425Z,5.71
2023-02-16T04:08:23.212Z,5.69
2023-02-16T04:10:50.726Z,5.67
2023-02-16T04:13:17.467Z,5.68
2023-02-16T04:15:44.159Z,5.69
2023-02-16T04:18:10.930Z,5.69
2023-02-16T04:20:37.980Z,5.70
2023-02-16T04:23:05.217Z,5.71
2023-02-16T04:25:31.951Z,5.71
2023-02-16T04:27:58.587Z,5.70
2023-02-16T04:30:28.707Z,5.69
2023-02-16T04:32:55.942Z,5.68
2023-02-16T04:35:23.291Z,5.68
2023-02-16T04:37:50.030Z,5.69
2023-02-16T04:40:18.106Z,5.71
2023-02-16T04:42:46.171Z,5.74
2023-02-16T04:45:13.601Z,5.76
2023-02-16T04:47:40.439Z,5.78
2023-02-16T04:50:08.353Z,5.81
2023-02-16T04:52:36.928Z,5.82
2023-02-16T04:55:05.786Z,5.85
2023-02-16T04:57:32.729Z,5.89
2023-02-16T04:59:59.412Z,5.92
2023-02-16T05:02:26.029Z,5.96
2023-02-16T05:04:52.781Z,5.95
2023-02-16T05:07:19.512Z,5.95
2023-02-16T05:09:46.350Z,5.95
2023-02-16T05:12:31.613Z,5.94
2023-02-16T05:14:58.374Z,5.91
2023-02-16T05:17:26.860Z,5.89
2023-02-16T05:19:59.454Z,5.89
2023-02-16T05:22:28.756Z,5.89
2023-02-16T05:24:55.571Z,5.90
2023-02-16T05:27:26.460Z,5.91
2023-02-16T05:29:53.080Z,5.94
2023-02-16T05:32:20.302Z,5.96
2023-02-16T05:34:47.336Z,6.01
2023-02-16T05:37:15.817Z,6.06
2023-02-16T05:39:42.739Z,6.08
2023-02-16T05:42:09.943Z,6.10
2023-02-16T05:44:37.855Z,6.09
2023-02-16T05:47:05.439Z,6.07
2023-02-16T05:49:32.252Z,6.01
2023-02-16T05:51:59.038Z,5.95
2023-02-16T05:54:25.934Z,5.90
2023-02-16T05:56:52.851Z,5.85
2023-02-16T05:59:19.991Z,5.78
2023-02-16T06:01:50.987Z,5.74
2023-02-16T06:04:19.829Z,5.71
2023-02-16T06:06:46.633Z,5.68
2023-02-16T06:09:13.279Z,5.68
2023-02-16T06:11:40.164Z,5.68
2023-02-16T06:14:10.370Z,5.68
2023-02-16T06:16:39.920Z,5.67
2023-02-16T06:19:07.637Z,5.67
2023-02-16T06:21:35.460Z,5.69
2023-02-16T06:24:02.805Z,5.70
2023-02-16T06:26:29.744Z,5.70
2023-02-16T06:28:57.063Z,5.71
2023-02-16T06:31:25.458Z,5.73
2023-02-16T06:33:53.127Z,5.76
2023-02-16T06:36:20.814Z,5.78
2023-02-16T06:38:47.846Z,5.81
2023-02-16T06:41:31.483Z,5.83
2023-02-16T06:44:03.467Z,5.90
2023-02-16T06:46:31.075Z,5.96
2023-02-16T06:48:58.188Z,5.99
2023-02-16T06:51:25.042Z,6.03
2023-02-16T06:53:51.808Z,6.05
2023-02-16T06:56:18.450Z,6.06
2023-02-16T06:58:45.263Z,6.08
2023-02-16T07:01:12.299Z,6.11
2023-02-16T07:03:40.167Z,6.15
2023-02-16T07:06:07.221Z,6.20
2023-02-16T07:08:34.922Z,6.25
2023-02-16T07:11:02.381Z,6.31
2023-02-16T07:13:29.032Z,6.38
2023-02-16T07:15:55.755Z,6.43
2023-02-16T07:18:22.492Z,6.48
2023-02-16T07:20:49.059Z,6.54
2023-02-16T07:23:15.705Z,6.57
2023-02-16T07:25:42.320Z,6.62
2023-02-16T07:28:08.985Z,6.65
2023-02-16T07:30:36.466Z,6.69
2023-02-16T07:33:03.810Z,6.73
2023-02-16T07:35:30.462Z,6.77
2023-02-16T07:37:57.168Z,6.80
2023-02-16T07:40:23.855Z,6.83
2023-02-16T07:42:50.558Z,6.86
2023-02-16T07:45:17.349Z,6.89
2023-02-16T07:47:44.083Z,6.93
2023-02-16T07:50:11.159Z,6.98
2023-02-16T07:52:37.945Z,7.03
2023-02-16T07:55:05.414Z,7.09
2023-02-16T07:57:32.082Z,7.16
2023-02-16T07:59:58.691Z,7.22
2023-02-16T08:02:27.471Z,7.29
2023-02-16T08:04:54.473Z,7.40
2023-02-16T08:07:21.550Z,7.50
2023-02-16T08:09:48.369Z,7.60
2023-02-16T08:12:16.210Z,7.74
2023-02-16T08:14:43.646Z,7.88
2023-02-16T08:17:10.940Z,7.99
2023-02-16T08:19:37.723Z,8.09
2023-02-16T08:22:05.633Z,8.19
2023-02-16T08:24:34.191Z,8.28
2023-02-16T08:27:03.932Z,8.40
2023-02-16T08:29:31.996Z,8.47
2023-02-16T08:31:59.346Z,8.55
2023-02-16T08:34:26.794Z,8.65
2023-02-16T08:36:56.969Z,8.76
2023-02-16T08:39:26.703Z,8.91
2023-02-16T08:41:54.436Z,9.05
2023-02-16T08:44:24.341Z,9.20
2023-02-16T08:46:53.224Z,9.31
2023-02-16T08:49:22.160Z,9.41
2023-02-16T08:51:52.597Z,9.50
2023-02-16T08:54:22.986Z,9.57
2023-02-16T08:56:49.814Z,9.67
2023-02-16T08:59:19.159Z,9.77
2023-02-16T09:01:46.321Z,9.88
2023-02-16T09:04:14.367Z,9.97
2023-02-16T09:06:44.657Z,10.02
2023-02-16T09:09:13.435Z,10.10
2023-02-16T09:11:41.170Z,10.17
2023-02-16T09:14:09.436Z,10.26
2023-02-16T09:16:39.525Z,10.34
2023-02-16T09:19:07.141Z,10.38
2023-02-16T09:21:34.301Z,10.42
2023-02-16T09:24:03.629Z,10.45
2023-02-16T09:26:38.562Z,10.48
2023-02-16T09:29:07.220Z,10.51
2023-02-16T09:31:37.374Z,10.54
2023-02-16T09:34:13.813Z,10.59
2023-02-16T09:36:40.599Z,10.63
2023-02-16T09:39:08.289Z,10.68
2023-02-16T09:41:41.095Z,10.71
2023-02-16T09:44:33.425Z,10.74
2023-02-16T09:47:04.948Z,10.78
2023-02-16T09:49:32.927Z,10.82
2023-02-16T09:52:06.887Z,10.87
2023-02-16T09:54:43.073Z,10.96
2023-02-16T09:57:19.555Z,11.07
2023-02-16T10:00:04.744Z,11.16
2023-02-16T10:03:00.462Z,11.28
2023-02-16T10:05:42.181Z,11.39
2023-02-16T10:08:16.792Z,11.49
2023-02-16T10:10:50.817Z,11.59
2023-02-16T10:13:28.247Z,11.67
2023-02-16T10:15:58.141Z,11.76
2023-02-16T10:18:40.181Z,11.85
2023-02-16T10:21:15.347Z,11.95
2023-02-16T10:24:00.696Z,12.02
2023-02-16T10:26:33.235Z,12.07
2023-02-16T10:29:04.243Z,12.11
2023-02-16T10:31:48.564Z,12.15
2023-02-16T10:34:23.424Z,12.21
2023-02-16T10:37:32.931Z,12.27
2023-02-16T10:40:23.307Z,12.32
2023-02-16T10:43:15.750Z,12.34
2023-02-16T10:45:52.511Z,12.34
2023-02-16T10:48:21.696Z,12.34
2023-02-16T10:51:09.445Z,12.36
2023-02-16T10:53:58.616Z,12.39
2023-02-16T10:56:31.496Z,12.38
2023-02-16T10:59:00.821Z,12.37
2023-02-16T11:01:39.959Z,12.36
2023-02-16T11:04:06.735Z,12.34
2023-02-16T11:06:36.497Z,12.34
2023-02-16T11:09:04.673Z,12.32
2023-02-16T11:11:38.770Z,12.30
2023-02-16T11:14:18.716Z,12.30
2023-02-16T11:16:46.678Z,12.33
2023-02-16T11:19:22.018Z,12.40
2023-02-16T11:21:58.909Z,12.49
2023-02-16T11:24:27.876Z,12.60
2023-02-16T11:27:19.277Z,12.69
2023-02-16T11:29:45.968Z,12.77
2023-02-16T11:32:15.753Z,12.82
2023-02-16T11:34:49.939Z,12.87
2023-02-16T11:37:31.355Z,12.93
2023-02-16T11:40:02.132Z,12.99
2023-02-16T11:42:44.629Z,13.02
2023-02-16T11:45:25.955Z,13.05
2023-02-16T11:48:00.135Z,13.05
2023-02-16T11:50:29.312Z,13.04
2023-02-16T11:53:10.407Z,13.05
2023-02-16T11:55:48.669Z,13.06
2023-02-16T11:58:20.204Z,13.09
2023-02-16T12:01:02.550Z,13.11
2023-02-16T12:03:41.845Z,13.13
2023-02-16T12:06:19.536Z,13.16
2023-02-16T12:08:51.938Z,13.17
2023-02-16T12:11:53.800Z,13.20
2023-02-16T12:14:49.693Z,13.24
2023-02-16T12:17:29.095Z,13.29
2023-02-16T12:20:25.400Z,13.33
2023-02-16T12:23:04.728Z,13.39
2023-02-16T12:25:38.316Z,13.41
2023-02-16T12:28:37.361Z,13.45
2023-02-16T12:31:22.483Z,13.47
2023-02-16T12:33:55.486Z,13.48
2023-02-16T12:36:44.170Z,13.54
2023-02-16T12:39:24.469Z,13.57
2023-02-16T12:42:25.967Z,13.61
2023-02-16T12:44:57.420Z,13.66
2023-02-16T12:47:27.689Z,13.71
2023-02-16T12:50:05.136Z,13.74
2023-02-16T12:52:40.968Z,13.74
2023-02-16T12:55:27.568Z,13.76
2023-02-16T12:58:00.167Z,13.76
2023-02-16T13:00:49.827Z,13.79
2023-02-16T13:03:50.866Z,13.83
2023-02-16T13:06:31.007Z,13.84
2023-02-16T13:09:28.011Z,13.87
2023-02-16T13:12:19.528Z,13.91
2023-02-16T13:14:56.944Z,13.92
2023-02-16T13:17:35.197Z,13.88
2023-02-16T13:20:03.616Z,13.85
2023-02-16T13:22:46.969Z,13.86
2023-02-16T13:25:17.249Z,13.87
2023-02-16T13:28:16.801Z,13.86
2023-02-16T13:31:04.745Z,13.88
2023-02-16T13:33:41.989Z,13.91
2023-02-16T13:36:11.494Z,13.95
2023-02-16T13:38:56.871Z,13.98
2023-02-16T13:42:01.636Z,14.00
2023-02-16T13:44:31.824Z,14.02
2023-02-16T13:47:00.772Z,14.03
2023-02-16T13:49:40.353Z,14.05
2023-02-16T13:52:09.178Z,14.06
2023-02-16T13:54:43.716Z,14.07
2023-02-16T13:57:15.306Z,14.11
2023-02-16T13:59:49.925Z,14.18
2023-02-16T14:02:56.816Z,14.23
2023-02-16T14:05:28.036Z,14.25
2023-02-16T14:08:25.059Z,14.23
2023-02-16T14:10:55.373Z,14.20
2023-02-16T14:13:37.590Z,14.17
2023-02-16T14:16:16.588Z,14.18
2023-02-16T14:18:55.083Z,14.16
2023-02-16T14:21:39.079Z,14.13
2023-02-16T14:24:11.897Z,14.07
2023-02-16T14:26:54.555Z,14.04
2023-02-16T14:29:28.270Z,14.01
2023-02-16T14:32:20.884Z,13.99
2023-02-16T14:34:56.809Z,13.99
2023-02-16T14:37:23.678Z,14.00
2023-02-16T14:40:07.358Z,13.99
2023-02-16T14:42:36.220Z,13.98
2023-02-16T14:45:44.474Z,13.95
2023-02-16T14:48:17.372Z,13.92
2023-02-16T14:50:59.846Z,13.89
2023-02-16T14:54:04.603Z,13.89
2023-02-16T14:56:42.092Z,13.87
2023-02-16T14:59:24.378Z,13.85
2023-02-16T15:01:52.041Z,13.83
2023-02-16T15:04:33.797Z,13.83
2023-02-16T15:07:04.799Z,13.83
2023-02-16T15:09:35.804Z,13.79
2023-02-16T15:12:22.393Z,13.76
2023-02-16T15:14:52.078Z,13.72
2023-02-16T15:17:34.496Z,13.70
2023-02-16T15:20:34.404Z,13.68
2023-02-16T15:23:06.305Z,13.66
2023-02-16T15:25:40.819Z,13.63
2023-02-16T15:28:10.623Z,13.62
2023-02-16T15:30:43.122Z,13.61
2023-02-16T15:33:25.487Z,13.58
2023-02-16T15:35:54.999Z,13.55
2023-02-16T15:38:27.862Z,13.52
2023-02-16T15:40:56.785Z,13.49
2023-02-16T15:43:26.844Z,13.45
2023-02-16T15:45:55.374Z,13.39
2023-02-16T15:48:24.046Z,13.33
2023-02-16T15:50:54.353Z,13.28
2023-02-16T15:53:46.907Z,13.20
2023-02-16T15:56:26.328Z,13.13
2023-02-16T15:58:53.160Z,13.08
2023-02-16T16:01:31.518Z,13.02
2023-02-16T16:04:22.938Z,12.96
2023-02-16T16:06:51.410Z,12.89
2023-02-16T16:09:30.443Z,12.83
2023-02-16T16:12:04.036Z,12.76
2023-02-16T16:14:35.634Z,12.70
2023-02-16T16:17:04.451Z,12.64
2023-02-16T16:19:35.116Z,12.58
2023-02-16T16:22:04.394Z,12.51
2023-02-16T16:24:39.087Z,12.44
2023-02-16T16:27:10.984Z,12.38
2023-02-16T16:29:46.912Z,12.32
2023-02-16T16:32:21.435Z,12.25
2023-02-16T16:34:48.891Z,12.20
2023-02-16T16:37:31.922Z,12.14
2023-02-16T16:40:06.642Z,12.07
2023-02-16T16:42:39.137Z,12.00
2023-02-16T16:45:07.334Z,11.93
2023-02-16T16:47:38.599Z,11.83
2023-02-16T16:50:11.741Z,11.75
2023-02-16T16:52:38.554Z,11.66
2023-02-16T16:55:21.491Z,11.57
2023-02-16T16:57:50.057Z,11.47
2023-02-16T17:00:18.436Z,11.38
2023-02-16T17:02:45.963Z,11.30
2023-02-16T17:05:12.812Z,11.22
2023-02-16T17:07:39.522Z,11.14
2023-02-16T17:10:07.545Z,11.05
2023-02-16T17:12:34.556Z,10.97
2023-02-16T17:15:02.216Z,10.89
2023-02-16T17:17:28.918Z,10.81
2023-02-16T17:19:55.623Z,10.74
2023-02-16T17:22:22.479Z,10.67
2023-02-16T17:24:49.791Z,10.60
2023-02-16T17:27:16.578Z,10.51
2023-02-16T17:29:44.775Z,10.40
2023-02-16T17:32:11.639Z,10.32
2023-02-16T17:34:38.595Z,10.26
2023-02-16T17:37:09.425Z,10.22
2023-02-16T17:39:36.344Z,10.19
2023-02-16T17:42:03.293Z,10.15
2023-02-16T17:44:30.114Z,10.11
2023-02-16T17:46:56.876Z,10.07
2023-02-16T17:49:23.634Z,10.04
2023-02-16T17:51:50.289Z,10.02
2023-02-16T17:54:17.001Z,9.98
2023-02-16T17:56:45.480Z,9.94
2023-02-16T17:59:15.406Z,9.89
2023-02-16T18:01:43.965Z,9.86
2023-02-16T18:04:10.837Z,9.83
2023-02-16T18:06:38.045Z,9.81
2023-02-16T18:09:04.873Z,9.78
2023-02-16T18:11:31.528Z,9.75
2023-02-16T18:13:58.306Z,9.73
2023-02-16T18:16:27.725Z,9.70
2023-02-16T18:18:57.450Z,9.67
2023-02-16T18:21:24.402Z,9.64
2023-02-16T18:23:51.379Z,9.59
2023-02-16T18:26:18.617Z,9.54
2023-02-16T18:28:46.658Z,9.49
2023-02-16T18:31:14.744Z,9.44
2023-02-16T18:33:42.018Z,9.41
2023-02-16T18:36:09.004Z,9.38
2023-02-16T18:38:36.334Z,9.37
2023-02-16T18:41:03.192Z,9.36
2023-02-16T18:43:29.956Z,9.35
2023-02-16T18:45:57.036Z,9.33
2023-02-16T18:48:23.875Z,9.32
2023-02-16T18:50:50.595Z,9.31
2023-02-16T18:53:17.248Z,9.27
2023-02-16T18:55:44.017Z,9.24
2023-02-16T18:58:12.914Z,9.21
2023-02-16T19:00:39.647Z,9.18
2023-02-16T19:03:06.415Z,9.15
2023-02-16T19:05:33.833Z,9.11
2023-02-16T19:08:00.610Z,9.03
2023-02-16T19:10:27.492Z,8.94
2023-02-16T19:12:54.145Z,8.91
2023-02-16T19:15:20.946Z,8.89
2023-02-16T19:17:48.160Z,8.86
2023-02-16T19:20:18.318Z,8.82
2023-02-16T19:22:46.296Z,8.78
2023-02-16T19:25:13.336Z,8.73
2023-02-16T19:27:40.072Z,8.68
2023-02-16T19:30:07.643Z,8.66
2023-02-16T19:32:34.982Z,8.66
2023-02-16T19:35:01.776Z,8.68
2023-02-16T19:37:28.470Z,8.70
2023-02-16T19:39:55.124Z,8.70
2023-02-16T19:42:21.890Z,8.69
2023-02-16T19:44:48.644Z,8.67
2023-02-16T19:47:15.408Z,8.64
2023-02-16T19:49:42.831Z,8.64
2023-02-16T19:52:09.589Z,8.62
2023-02-16T19:54:37.492Z,8.64
2023-02-16T19:57:04.857Z,8.63
2023-02-16T19:59:34.293Z,8.61
2023-02-16T20:02:02.139Z,8.59
2023-02-16T20:04:29.157Z,8.55
2023-02-16T20:06:56.682Z,8.52
2023-02-16T20:09:24.664Z,8.50
2023-02-16T20:11:52.289Z,8.48
2023-02-16T20:14:19.087Z,8.47
2023-02-16T20:16:46.317Z,8.45
2023-02-16T20:19:13.329Z,8.45
2023-02-16T20:21:44.346Z,8.46
2023-02-16T20:24:11.499Z,8.48
2023-02-16T20:26:42.379Z,8.50
2023-02-16T20:29:12.460Z,8.52
2023-02-16T20:31:49.046Z,8.53
2023-02-16T20:34:16.036Z,8.53
2023-02-16T20:36:43.157Z,8.49
2023-02-16T20:39:09.975Z,8.47
2023-02-16T20:41:38.593Z,8.45
2023-02-16T20:44:05.702Z,8.42
2023-02-16T20:46:33.086Z,8.40
2023-02-16T20:48:59.946Z,8.37
2023-02-16T20:51:26.855Z,8.34
2023-02-16T20:53:53.609Z,8.30
2023-02-16T20:56:23.304Z,8.26
2023-02-16T20:58:52.311Z,8.23
2023-02-16T21:01:21.864Z,8.20
2023-02-16T21:03:49.568Z,8.17
2023-02-16T21:06:16.710Z,8.17
2023-02-16T21:08:43.841Z,8.20
2023-02-16T21:11:11.370Z,8.23
2023-02-16T21:13:40.224Z,8.24
2023-02-16T21:16:07.834Z,8.25
2023-02-16T21:18:35.471Z,8.24
2023-02-16T21:21:03.682Z,8.22
2023-02-16T21:23:32.303Z,8.22
2023-02-16T21:26:00.900Z,8.20
2023-02-16T21:28:28.254Z,8.17
2023-02-16T21:30:55.739Z,8.17
2023-02-16T21:33:22.463Z,8.16
2023-02-16T21:35:49.123Z,8.14
2023-02-16T21:38:17.839Z,8.14
2023-02-16T21:41:03.755Z,8.12
2023-02-16T21:43:30.471Z,8.09
2023-02-16T21:46:01.455Z,8.08
2023-02-16T21:48:45.200Z,8.05
2023-02-16T21:51:15.427Z,8.02
2023-02-16T21:53:42.796Z,8.01
2023-02-16T21:56:37.119Z,8.03
2023-02-16T21:59:05.737Z,8.09
2023-02-16T22:01:35.511Z,8.15
2023-02-16T22:04:03.011Z,8.17
2023-02-16T22:06:38.641Z,8.18
2023-02-16T22:09:08.669Z,8.18
2023-02-16T22:11:35.726Z,8.15
2023-02-16T22:14:02.643Z,8.14
2023-02-16T22:16:31.686Z,8.11
2023-02-16T22:19:08.868Z,8.07
2023-02-16T22:21:37.561Z,8.06
2023-02-16T22:24:04.903Z,8.03
2023-02-16T22:26:33.543Z,8.00
2023-02-16T22:29:03.270Z,7.99
2023-02-16T22:31:30.261Z,7.97
2023-02-16T22:33:59.276Z,7.96
2023-02-16T22:36:27.441Z,7.95
2023-02-16T22:38:55.796Z,7.99
2023-02-16T22:41:23.787Z,8.03
2023-02-16T22:43:55.201Z,8.07
2023-02-16T22:46:24.105Z,8.10
2023-02-16T22:48:52.892Z,8.11
2023-02-16T22:51:21.547Z,8.10
2023-02-16T22:53:48.397Z,8.10
2023-02-16T22:56:17.708Z,8.11
2023-02-16T22:58:44.693Z,8.14
2023-02-16T23:01:14.003Z,8.16
2023-02-16T23:03:41.848Z,8.18
2023-02-16T23:06:13.729Z,8.16
2023-02-16T23:08:41.190Z,8.12
2023-02-16T23:11:08.080Z,8.08
2023-02-16T23:13:35.326Z,8.05
2023-02-16T23:16:16.801Z,8.02
2023-02-16T23:18:44.432Z,8.03
2023-02-16T23:21:15.226Z,8.07
2023-02-16T23:23:42.293Z,8.11
2023-02-16T23:26:10.097Z,8.13
2023-02-16T23:28:39.610Z,8.14
2023-02-16T23:31:06.849Z,8.15
2023-02-16T23:33:34.302Z,8.14
2023-02-16T23:36:10.990Z,8.12
2023-02-16T23:38:40.050Z,8.12
2023-02-16T23:41:13.436Z,8.10
2023-02-16T23:43:42.417Z,8.08
2023-02-16T23:46:10.756Z,8.07
2023-02-16T23:48:38.598Z,8.04
2023-02-16T23:51:05.870Z,8.02
2023-02-16T23:53:33.251Z,7.99
2023-02-16T23:56:00.795Z,7.98
2023-02-16T23:58:28.912Z,8.00
